createdAt,value
2016-06-04T00:00:13.355Z,0
2016-06-04T00:01:13.513Z,0
2016-06-04T00:02:13.531Z,0
2016-06-04T00:03:13.518Z,0
2016-06-04T00:04:13.397Z,0
2016-06-04T00:05:13.539Z,0
2016-06-04T00:06:13.574Z,0
2016-06-04T00:07:13.561Z,0
2016-06-04T00:08:13.563Z,0
2016-06-04T00:09:13.550Z,0
2016-06-04T00:10:13.585Z,0
2016-06-04T00:11:14.634Z,0
2016-06-04T00:12:13.589Z,0
2016-06-04T00:13:13.593Z,0
2016-06-04T00:14:13.595Z,0
2016-06-04T00:15:13.598Z,0
2016-06-04T00:16:13.600Z,0
2016-06-04T00:17:13.462Z,0
2016-06-04T00:18:13.621Z,0
2016-06-04T00:19:13.467Z,0
2016-06-04T00:20:13.627Z,0
2016-06-04T00:21:13.504Z,0
2016-06-04T00:22:13.507Z,0
2016-06-04T00:23:13.681Z,0
2016-06-04T00:24:13.528Z,0
2016-06-04T00:25:13.672Z,0
2016-06-04T00:26:13.893Z,0
2016-06-04T00:27:13.692Z,0
2016-06-04T00:28:13.679Z,0
2016-06-04T00:29:13.683Z,0
2016-06-04T00:30:13.685Z,0
2016-06-04T00:31:13.750Z,0
2016-06-04T00:32:13.705Z,0
2016-06-04T00:33:13.693Z,0
2016-06-04T00:34:13.727Z,0
2016-06-04T00:35:13.714Z,0
2016-06-04T00:36:13.732Z,0
2016-06-04T00:37:13.735Z,0
2016-06-04T00:38:13.753Z,0
2016-06-04T00:39:13.756Z,0
2016-06-04T00:40:13.758Z,0
2016-06-04T00:41:13.605Z,0
2016-06-04T00:42:13.764Z,0
2016-06-04T00:43:13.782Z,0
2016-06-04T00:44:13.785Z,0
2016-06-04T00:45:13.787Z,0
2016-06-04T00:46:13.807Z,0
2016-06-04T00:47:13.793Z,0
2016-06-04T00:48:13.796Z,0
2016-06-04T00:49:13.798Z,0
2016-06-04T00:50:13.817Z,0
2016-06-04T00:51:13.820Z,0
2016-06-04T00:52:13.681Z,0
2016-06-04T00:53:13.857Z,0
2016-06-04T00:54:13.843Z,0
2016-06-04T00:55:14.158Z,0
2016-06-04T00:56:14.489Z,0
2016-06-04T00:57:13.851Z,0
2016-06-04T00:58:13.854Z,0
2016-06-04T00:59:13.868Z,0
2016-06-04T01:00:13.921Z,0
2016-06-04T01:01:13.956Z,0
2016-06-04T01:02:13.993Z,0
2016-06-04T01:03:14.045Z,0
2016-06-04T01:04:14.073Z,0
2016-06-04T01:05:14.088Z,0
2016-06-04T01:06:13.962Z,0
2016-06-04T01:07:14.148Z,0
2016-06-04T01:08:14.147Z,0
2016-06-04T01:09:14.158Z,0
2016-06-04T01:10:14.165Z,0
2016-06-04T01:11:14.203Z,0
2016-06-04T01:12:14.195Z,0
2016-06-04T01:13:14.202Z,0
2016-06-04T01:14:14.208Z,0
2016-06-04T01:15:14.290Z,0
2016-06-04T01:16:14.231Z,0
2016-06-04T01:17:14.220Z,0
2016-06-04T01:18:14.225Z,0
2016-06-04T01:19:14.259Z,0
2016-06-04T01:20:14.246Z,0
2016-06-04T01:21:14.110Z,0
2016-06-04T01:22:14.269Z,0
2016-06-04T01:23:14.272Z,0
2016-06-04T01:24:14.275Z,0
2016-06-04T01:25:14.294Z,0
2016-06-04T01:26:14.328Z,0
2016-06-04T01:27:14.143Z,0
2016-06-04T01:28:14.303Z,0
2016-06-04T01:29:14.306Z,0
2016-06-04T01:30:14.309Z,0
2016-06-04T01:31:14.312Z,0
2016-06-04T01:32:14.329Z,0
2016-06-04T01:33:14.332Z,0
2016-06-04T01:34:14.350Z,0
2016-06-04T01:35:14.276Z,0
2016-06-04T01:36:14.403Z,0
2016-06-04T01:37:14.375Z,0
2016-06-04T01:38:14.378Z,0
2016-06-04T01:39:14.395Z,0
2016-06-04T01:40:14.383Z,0
2016-06-04T01:41:15.011Z,0
2016-06-04T01:42:14.388Z,0
2016-06-04T01:43:14.391Z,0
2016-06-04T01:44:14.394Z,0
2016-06-04T01:45:14.411Z,0
2016-06-04T01:46:14.430Z,0
2016-06-04T01:47:14.433Z,0
2016-06-04T01:48:14.436Z,0
2016-06-04T01:49:14.469Z,0
2016-06-04T01:50:14.441Z,0
2016-06-04T01:51:14.443Z,0
2016-06-04T01:52:14.461Z,0
2016-06-04T01:53:14.464Z,0
2016-06-04T01:54:14.451Z,0
2016-06-04T01:55:14.907Z,0
2016-06-04T01:56:14.301Z,0
2016-06-04T01:57:14.475Z,0
2016-06-04T01:58:14.494Z,0
2016-06-04T01:59:14.496Z,0
2016-06-04T02:00:14.498Z,0
2016-06-04T02:01:14.502Z,0
2016-06-04T02:02:14.504Z,0
2016-06-04T02:03:14.506Z,0
2016-06-04T02:04:14.369Z,0
2016-06-04T02:05:14.543Z,0
2016-06-04T02:06:14.530Z,0
2016-06-04T02:07:14.534Z,0
2016-06-04T02:08:14.551Z,0
2016-06-04T02:09:14.553Z,0
2016-06-04T02:10:14.573Z,0
2016-06-04T02:11:14.607Z,0
2016-06-04T02:12:14.561Z,0
2016-06-04T02:13:14.581Z,0
2016-06-04T02:14:14.567Z,0
2016-06-04T02:15:14.586Z,0
2016-06-04T02:16:14.588Z,0
2016-06-04T02:17:14.591Z,0
2016-06-04T02:18:14.610Z,0
2016-06-04T02:19:14.316Z,0
2016-06-04T02:20:14.630Z,0
2016-06-04T02:21:14.633Z,0
2016-06-04T02:22:14.652Z,0
2016-06-04T02:23:14.639Z,0
2016-06-04T02:24:14.642Z,0
2016-06-04T02:25:14.504Z,0
2016-06-04T02:26:14.521Z,0
2016-06-04T02:27:14.665Z,0
2016-06-04T02:28:14.668Z,0
2016-06-04T02:29:14.670Z,0
2016-06-04T02:30:14.673Z,0
2016-06-04T02:31:14.691Z,0
2016-06-04T02:32:14.694Z,0
2016-06-04T02:33:14.696Z,0
2016-06-04T02:34:14.793Z,0
2016-06-04T02:35:14.702Z,0
2016-06-04T02:36:14.705Z,0
2016-06-04T02:37:14.567Z,0
2016-06-04T02:38:14.725Z,0
2016-06-04T02:39:14.729Z,0
2016-06-04T02:40:14.731Z,0
2016-06-04T02:41:15.578Z,0
2016-06-04T02:42:14.753Z,0
2016-06-04T02:43:14.770Z,0
2016-06-04T02:44:14.773Z,0
2016-06-04T02:45:14.761Z,0
2016-06-04T02:46:14.778Z,0
2016-06-04T02:47:14.781Z,0
2016-06-04T02:48:14.627Z,0
2016-06-04T02:49:14.786Z,0
2016-06-04T02:50:14.789Z,0
2016-06-04T02:51:14.808Z,0
2016-06-04T02:52:14.826Z,0
2016-06-04T02:53:14.844Z,0
2016-06-04T02:54:14.832Z,0
2016-06-04T02:55:14.850Z,0
2016-06-04T02:56:15.024Z,0
2016-06-04T02:57:14.886Z,0
2016-06-04T02:58:14.857Z,0
2016-06-04T02:59:14.845Z,0
2016-06-04T03:00:14.848Z,0
2016-06-04T03:01:14.866Z,0
2016-06-04T03:02:14.868Z,0
2016-06-04T03:03:14.887Z,0
2016-06-04T03:04:14.890Z,0
2016-06-04T03:05:14.893Z,0
2016-06-04T03:06:14.895Z,0
2016-06-04T03:07:14.913Z,0
2016-06-04T03:08:14.916Z,0
2016-06-04T03:09:14.918Z,0
2016-06-04T03:10:14.921Z,0
2016-06-04T03:11:15.048Z,0
2016-06-04T03:12:14.926Z,0
2016-06-04T03:13:14.945Z,0
2016-06-04T03:14:14.964Z,0
2016-06-04T03:15:14.966Z,0
2016-06-04T03:16:14.953Z,0
2016-06-04T03:17:14.956Z,0
2016-06-04T03:18:14.989Z,0
2016-06-04T03:19:14.993Z,0
2016-06-04T03:20:14.995Z,0
2016-06-04T03:21:14.997Z,0
2016-06-04T03:22:15.173Z,0
2016-06-04T03:23:15.003Z,0
2016-06-04T03:24:15.022Z,0
2016-06-04T03:25:15.102Z,0
2016-06-04T03:26:16.339Z,0
2016-06-04T03:27:15.030Z,0
2016-06-04T03:28:15.033Z,0
2016-06-04T03:29:15.066Z,0
2016-06-04T03:30:15.054Z,0
2016-06-04T03:31:15.072Z,0
2016-06-04T03:32:15.075Z,0
2016-06-04T03:33:15.076Z,0
2016-06-04T03:34:15.096Z,0
2016-06-04T03:35:15.082Z,0
2016-06-04T03:36:15.085Z,0
2016-06-04T03:37:15.087Z,0
2016-06-04T03:38:15.090Z,0
2016-06-04T03:39:15.093Z,0
2016-06-04T03:40:15.096Z,0
2016-06-04T03:41:15.239Z,0
2016-06-04T03:42:15.132Z,0
2016-06-04T03:43:15.119Z,0
2016-06-04T03:44:15.137Z,0
2016-06-04T03:45:15.140Z,5
2016-06-04T03:46:15.159Z,5
2016-06-04T03:47:15.162Z,5
2016-06-04T03:48:15.148Z,5
2016-06-04T03:49:15.167Z,5
2016-06-04T03:50:15.169Z,5
2016-06-04T03:51:15.172Z,5
2016-06-04T03:52:15.268Z,5
2016-06-04T03:53:15.178Z,5
2016-06-04T03:54:15.180Z,5
2016-06-04T03:55:15.199Z,5
2016-06-04T03:56:15.435Z,5
2016-06-04T03:57:15.266Z,5
2016-06-04T03:58:15.238Z,5
2016-06-04T03:59:15.225Z,5
2016-06-04T04:00:15.274Z,5
2016-06-04T04:01:15.308Z,5
2016-06-04T04:02:15.249Z,5
2016-06-04T04:03:15.252Z,5
2016-06-04T04:04:15.254Z,5
2016-06-04T04:05:15.257Z,5
2016-06-04T04:06:15.104Z,5
2016-06-04T04:07:15.278Z,5
2016-06-04T04:08:15.265Z,5
2016-06-04T04:09:15.283Z,5
2016-06-04T04:10:15.286Z,5
2016-06-04T04:11:15.179Z,5
2016-06-04T04:12:15.292Z,5
2016-06-04T04:13:15.309Z,5
2016-06-04T04:14:15.312Z,5
2016-06-04T04:15:15.315Z,5
2016-06-04T04:16:15.333Z,10
2016-06-04T04:17:15.336Z,10
2016-06-04T04:18:15.354Z,10
2016-06-04T04:19:15.356Z,10
2016-06-04T04:20:15.375Z,10
2016-06-04T04:21:15.378Z,10
2016-06-04T04:22:15.350Z,10
2016-06-04T04:23:15.367Z,10
2016-06-04T04:24:15.370Z,10
2016-06-04T04:25:15.373Z,10
2016-06-04T04:26:15.798Z,10
2016-06-04T04:27:15.410Z,10
2016-06-04T04:28:15.413Z,10
2016-06-04T04:29:15.275Z,10
2016-06-04T04:30:15.418Z,10
2016-06-04T04:31:15.435Z,10
2016-06-04T04:32:15.438Z,10
2016-06-04T04:33:15.426Z,10
2016-06-04T04:34:15.460Z,10
2016-06-04T04:35:15.446Z,10
2016-06-04T04:36:15.481Z,10
2016-06-04T04:37:15.468Z,10
2016-06-04T04:38:15.454Z,15
2016-06-04T04:39:15.458Z,15
2016-06-04T04:40:15.320Z,20
2016-06-04T04:41:15.666Z,20
2016-06-04T04:42:15.481Z,20
2016-06-04T04:43:15.515Z,20
2016-06-04T04:44:15.518Z,20
2016-06-04T04:45:15.506Z,20
2016-06-04T04:46:15.508Z,20
2016-06-04T04:47:15.511Z,20
2016-06-04T04:48:15.528Z,20
2016-06-04T04:49:15.531Z,20
2016-06-04T04:50:15.534Z,20
2016-06-04T04:51:15.584Z,20
2016-06-04T04:52:15.570Z,25
2016-06-04T04:53:15.402Z,25
2016-06-04T04:54:15.561Z,25
2016-06-04T04:55:15.564Z,25
2016-06-04T04:56:15.535Z,25
2016-06-04T04:57:15.615Z,25
2016-06-04T04:58:15.634Z,25
2016-06-04T04:59:15.589Z,25
2016-06-04T05:00:15.591Z,25
2016-06-04T05:01:15.438Z,25
2016-06-04T05:02:15.629Z,25
2016-06-04T05:03:15.616Z,25
2016-06-04T05:04:15.635Z,25
2016-06-04T05:05:15.637Z,25
2016-06-04T05:06:15.640Z,25
2016-06-04T05:07:15.658Z,25
2016-06-04T05:08:15.660Z,25
2016-06-04T05:09:15.648Z,25
2016-06-04T05:10:15.666Z,25
2016-06-04T05:11:17.075Z,20
2016-06-04T05:12:15.671Z,20
2016-06-04T05:13:15.534Z,25
2016-06-04T05:14:15.693Z,25
2016-06-04T05:15:15.711Z,25
2016-06-04T05:16:15.697Z,25
2016-06-04T05:17:15.701Z,25
2016-06-04T05:18:15.844Z,25
2016-06-04T05:19:15.722Z,25
2016-06-04T05:20:15.725Z,25
2016-06-04T05:21:15.743Z,25
2016-06-04T05:22:15.745Z,25
2016-06-04T05:23:15.732Z,25
2016-06-04T05:24:15.751Z,30
2016-06-04T05:25:15.769Z,40
2016-06-04T05:26:17.412Z,45
2016-06-04T05:27:15.774Z,50
2016-06-04T05:28:15.777Z,55
2016-06-04T05:29:15.780Z,50
2016-06-04T05:30:15.797Z,45
2016-06-04T05:31:15.800Z,45
2016-06-04T05:32:15.788Z,45
2016-06-04T05:33:15.806Z,50
2016-06-04T05:34:15.824Z,55
2016-06-04T05:35:15.827Z,55
2016-06-04T05:36:15.829Z,55
2016-06-04T05:37:15.849Z,55
2016-06-04T05:38:15.523Z,55
2016-06-04T05:39:15.901Z,55
2016-06-04T05:40:15.857Z,50
2016-06-04T05:41:15.859Z,45
2016-06-04T05:42:15.862Z,45
2016-06-04T05:43:15.848Z,45
2016-06-04T05:44:15.882Z,40
2016-06-04T05:45:15.885Z,40
2016-06-04T05:46:15.887Z,40
2016-06-04T05:47:15.875Z,40
2016-06-04T05:48:15.893Z,40
2016-06-04T05:49:15.912Z,40
2016-06-04T05:50:15.914Z,45
2016-06-04T05:51:15.901Z,45
2016-06-04T05:52:15.936Z,45
2016-06-04T05:53:15.922Z,45
2016-06-04T05:54:15.925Z,45
2016-06-04T05:55:15.959Z,50
2016-06-04T05:56:15.789Z,55
2016-06-04T05:57:15.995Z,60
2016-06-04T05:58:16.077Z,65
2016-06-04T05:59:16.001Z,80
2016-06-04T06:00:15.988Z,100
2016-06-04T06:01:15.991Z,110
2016-06-04T06:02:15.993Z,120
2016-06-04T06:03:15.997Z,120
2016-06-04T06:04:15.999Z,135
2016-06-04T06:05:16.002Z,150
2016-06-04T06:06:16.019Z,170
2016-06-04T06:07:16.022Z,205
2016-06-04T06:08:16.024Z,200
2016-06-04T06:09:16.074Z,215
2016-06-04T06:10:16.030Z,250
2016-06-04T06:11:16.143Z,240
2016-06-04T06:12:16.051Z,245
2016-06-04T06:13:16.085Z,150
2016-06-04T06:14:16.057Z,115
2016-06-04T06:15:16.107Z,165
2016-06-04T06:16:16.078Z,290
2016-06-04T06:17:16.096Z,430
2016-06-04T06:18:16.084Z,525
2016-06-04T06:19:16.101Z,475
2016-06-04T06:20:16.104Z,565
2016-06-04T06:21:16.123Z,595
2016-06-04T06:22:15.953Z,575
2016-06-04T06:23:16.253Z,600
2016-06-04T06:24:16.130Z,665
2016-06-04T06:25:16.149Z,660
2016-06-04T06:26:16.934Z,625
2016-06-04T06:27:16.467Z,555
2016-06-04T06:28:16.172Z,555
2016-06-04T06:29:16.191Z,520
2016-06-04T06:30:16.022Z,680
2016-06-04T06:31:16.196Z,555
2016-06-04T06:32:15.902Z,675
2016-06-04T06:33:16.217Z,620
2016-06-04T06:34:16.220Z,710
2016-06-04T06:35:16.222Z,730
2016-06-04T06:36:16.241Z,835
2016-06-04T06:37:16.244Z,855
2016-06-04T06:38:16.246Z,835
2016-06-04T06:39:16.265Z,820
2016-06-04T06:40:16.283Z,740
2016-06-04T06:41:16.770Z,860
2016-06-04T06:42:16.288Z,885
2016-06-04T06:43:16.307Z,865
2016-06-04T06:44:16.309Z,875
2016-06-04T06:45:16.312Z,805
2016-06-04T06:46:16.331Z,635
2016-06-04T06:47:16.334Z,695
2016-06-04T06:48:16.336Z,450
2016-06-04T06:49:16.385Z,545
2016-06-04T06:50:16.044Z,415
2016-06-04T06:51:16.391Z,680
2016-06-04T06:52:16.378Z,445
2016-06-04T06:53:16.428Z,630
2016-06-04T06:54:16.398Z,690
2016-06-04T06:55:16.433Z,790
2016-06-04T06:56:16.404Z,880
2016-06-04T06:57:16.547Z,895
2016-06-04T06:58:16.519Z,880
2016-06-04T06:59:16.506Z,890
2016-06-04T07:00:16.447Z,960
2016-06-04T07:01:16.465Z,1005
2016-06-04T07:02:16.467Z,1015
2016-06-04T07:03:16.470Z,1055
2016-06-04T07:04:16.613Z,1030
2016-06-04T07:05:16.491Z,1030
2016-06-04T07:06:16.510Z,1015
2016-06-04T07:07:16.356Z,965
2016-06-04T07:08:16.546Z,935
2016-06-04T07:09:16.548Z,915
2016-06-04T07:10:16.566Z,940
2016-06-04T07:11:16.835Z,980
2016-06-04T07:12:16.556Z,980
2016-06-04T07:13:16.856Z,1040
2016-06-04T07:14:16.594Z,1065
2016-06-04T07:15:16.596Z,875
2016-06-04T07:16:16.598Z,945
2016-06-04T07:17:16.617Z,730
2016-06-04T07:18:16.620Z,715
2016-06-04T07:19:16.654Z,1080
2016-06-04T07:20:16.484Z,995
2016-06-04T07:21:16.675Z,1120
2016-06-04T07:22:16.787Z,740
2016-06-04T07:23:16.524Z,505
2016-06-04T07:24:16.683Z,800
2016-06-04T07:25:16.685Z,735
2016-06-04T07:26:16.720Z,945
2016-06-04T07:27:16.706Z,890
2016-06-04T07:28:16.740Z,700
2016-06-04T07:29:16.743Z,475
2016-06-04T07:30:16.745Z,895
2016-06-04T07:31:16.764Z,1045
2016-06-04T07:32:16.766Z,860
2016-06-04T07:33:16.769Z,505
2016-06-04T07:34:16.772Z,910
2016-06-04T07:35:16.791Z,970
2016-06-04T07:36:16.808Z,720
2016-06-04T07:37:16.655Z,405
2016-06-04T07:38:16.814Z,285
2016-06-04T07:39:16.833Z,290
2016-06-04T07:40:16.835Z,260
2016-06-04T07:41:17.088Z,230
2016-06-04T07:42:16.857Z,205
2016-06-04T07:43:16.891Z,175
2016-06-04T07:44:16.737Z,165
2016-06-04T07:45:16.910Z,150
2016-06-04T07:46:16.898Z,150
2016-06-04T07:47:17.041Z,150
2016-06-04T07:48:16.904Z,160
2016-06-04T07:49:16.921Z,175
2016-06-04T07:50:16.924Z,195
2016-06-04T07:51:16.927Z,220
2016-06-04T07:52:16.945Z,205
2016-06-04T07:53:16.948Z,220
2016-06-04T07:54:16.981Z,225
2016-06-04T07:55:16.954Z,205
2016-06-04T07:56:17.378Z,220
2016-06-04T07:57:17.553Z,185
2016-06-04T07:58:17.103Z,200
2016-06-04T07:59:16.995Z,230
2016-06-04T08:00:17.014Z,240
2016-06-04T08:01:17.111Z,220
2016-06-04T08:02:17.019Z,190
2016-06-04T08:03:17.022Z,230
2016-06-04T08:04:16.884Z,190
2016-06-04T08:05:17.058Z,185
2016-06-04T08:06:17.061Z,210
2016-06-04T08:07:18.095Z,205
2016-06-04T08:08:17.067Z,190
2016-06-04T08:09:17.085Z,175
2016-06-04T08:10:17.088Z,180
2016-06-04T08:11:17.090Z,185
2016-06-04T08:12:22.452Z,170
2016-06-04T08:13:17.846Z,175
2016-06-04T08:14:17.129Z,170
2016-06-04T08:15:17.133Z,165
2016-06-04T08:16:17.166Z,165
2016-06-04T08:17:17.154Z,160
2016-06-04T08:18:17.156Z,160
2016-06-04T08:19:17.159Z,160
2016-06-04T08:20:17.177Z,155
2016-06-04T08:21:17.164Z,155
2016-06-04T08:22:17.182Z,155
2016-06-04T08:23:17.184Z,155
2016-06-04T08:24:17.204Z,150
2016-06-04T08:25:17.206Z,150
2016-06-04T08:26:17.240Z,155
2016-06-04T08:27:17.228Z,145
2016-06-04T08:28:17.230Z,145
2016-06-04T08:29:17.233Z,145
2016-06-04T08:30:17.235Z,145
2016-06-04T08:31:17.253Z,145
2016-06-04T08:32:17.272Z,145
2016-06-04T08:33:17.258Z,145
2016-06-04T08:34:17.293Z,145
2016-06-04T08:35:17.280Z,145
2016-06-04T08:36:17.563Z,145
2016-06-04T08:37:17.332Z,140
2016-06-04T08:38:18.178Z,145
2016-06-04T08:39:20.696Z,140
2016-06-04T08:40:17.340Z,140
2016-06-04T08:41:17.327Z,140
2016-06-04T08:42:17.876Z,140
2016-06-04T08:43:17.473Z,145
2016-06-04T08:44:17.367Z,145
2016-06-04T08:45:17.369Z,145
2016-06-04T08:46:17.357Z,140
2016-06-04T08:47:17.390Z,150
2016-06-04T08:48:17.377Z,150
2016-06-04T08:49:17.396Z,145
2016-06-04T08:50:17.414Z,150
2016-06-04T08:51:17.245Z,145
2016-06-04T08:52:17.404Z,145
2016-06-04T08:53:17.422Z,150
2016-06-04T08:54:17.268Z,150
2016-06-04T08:55:17.443Z,145
2016-06-04T08:56:17.430Z,145
2016-06-04T08:57:17.464Z,145
2016-06-04T08:58:17.326Z,145
2016-06-04T08:59:18.156Z,140
2016-06-04T09:00:17.472Z,140
2016-06-04T09:01:17.319Z,145
2016-06-04T09:02:17.712Z,145
2016-06-04T09:03:17.495Z,145
2016-06-04T09:04:17.498Z,140
2016-06-04T09:05:17.501Z,140
2016-06-04T09:06:17.536Z,140
2016-06-04T09:07:17.553Z,140
2016-06-04T09:08:17.525Z,140
2016-06-04T09:09:17.544Z,135
2016-06-04T09:10:17.561Z,140
2016-06-04T09:11:17.564Z,140
2016-06-04T09:12:18.114Z,140
2016-06-04T09:13:18.132Z,145
2016-06-04T09:14:17.572Z,145
2016-06-04T09:15:17.434Z,145
2016-06-04T09:16:17.594Z,140
2016-06-04T09:17:17.299Z,135
2016-06-04T09:18:17.598Z,135
2016-06-04T09:19:17.618Z,135
2016-06-04T09:20:17.620Z,135
2016-06-04T09:21:17.638Z,130
2016-06-04T09:22:17.485Z,130
2016-06-04T09:23:17.643Z,135
2016-06-04T09:24:17.662Z,130
2016-06-04T09:25:17.665Z,130
2016-06-04T09:26:17.682Z,130
2016-06-04T09:27:17.717Z,130
2016-06-04T09:28:17.828Z,130
2016-06-04T09:29:19.176Z,130
2016-06-04T09:30:17.553Z,130
2016-06-04T09:31:17.711Z,130
2016-06-04T09:32:17.558Z,125
2016-06-04T09:33:17.734Z,125
2016-06-04T09:34:17.736Z,130
2016-06-04T09:35:17.582Z,120
2016-06-04T09:36:17.741Z,120
2016-06-04T09:37:17.759Z,120
2016-06-04T09:38:17.762Z,120
2016-06-04T09:39:17.624Z,120
2016-06-04T09:40:17.767Z,125
2016-06-04T09:41:17.786Z,120
2016-06-04T09:42:17.633Z,120
2016-06-04T09:43:18.447Z,120
2016-06-04T09:44:17.825Z,120
2016-06-04T09:45:17.812Z,120
2016-06-04T09:46:17.830Z,120
2016-06-04T09:47:17.521Z,120
2016-06-04T09:48:17.695Z,120
2016-06-04T09:49:17.854Z,120
2016-06-04T09:50:17.841Z,120
2016-06-04T09:51:17.860Z,115
2016-06-04T09:52:17.877Z,115
2016-06-04T09:53:17.879Z,115
2016-06-04T09:54:17.899Z,115
2016-06-04T09:55:17.885Z,115
2016-06-04T09:56:17.904Z,115
2016-06-04T09:57:17.750Z,115
2016-06-04T09:58:17.973Z,115
2016-06-04T09:59:18.084Z,115
2016-06-04T10:00:17.978Z,110
2016-06-04T10:01:20.495Z,110
2016-06-04T10:02:17.967Z,110
2016-06-04T10:03:17.798Z,110
2016-06-04T10:04:18.020Z,105
2016-06-04T10:05:17.992Z,110
2016-06-04T10:06:20.523Z,110
2016-06-04T10:07:18.069Z,110
2016-06-04T10:08:18.084Z,110
2016-06-04T10:09:18.130Z,110
2016-06-04T10:10:18.149Z,110
2016-06-04T10:11:18.208Z,115
2016-06-04T10:12:18.190Z,115
2016-06-04T10:13:18.531Z,115
2016-06-04T10:14:18.246Z,110
2016-06-04T10:15:18.240Z,110
2016-06-04T10:16:22.293Z,105
2016-06-04T10:17:18.266Z,105
2016-06-04T10:18:18.272Z,110
2016-06-04T10:19:18.311Z,110
2016-06-04T10:20:18.019Z,110
2016-06-04T10:21:20.195Z,110
2016-06-04T10:22:18.308Z,110
2016-06-04T10:23:18.062Z,110
2016-06-04T10:24:18.333Z,110
2016-06-04T10:25:18.351Z,110
2016-06-04T10:26:18.339Z,110
2016-06-04T10:27:18.374Z,110
2016-06-04T10:28:18.798Z,110
2016-06-04T10:29:18.989Z,110
2016-06-04T10:30:18.226Z,110
2016-06-04T10:31:18.385Z,90
2016-06-04T10:32:18.388Z,115
2016-06-04T10:33:18.406Z,115
2016-06-04T10:34:18.393Z,115
2016-06-04T10:35:18.412Z,115
2016-06-04T10:36:18.445Z,115
2016-06-04T10:37:18.432Z,95
2016-06-04T10:38:18.435Z,105
2016-06-04T10:39:18.469Z,115
2016-06-04T10:40:18.456Z,105
2016-06-04T10:41:18.459Z,100
2016-06-04T10:42:18.477Z,75
2016-06-04T10:43:21.371Z,80
2016-06-04T10:44:18.826Z,90
2016-06-04T10:45:18.470Z,110
2016-06-04T10:46:18.503Z,110
2016-06-04T10:47:18.523Z,115
2016-06-04T10:48:18.493Z,115
2016-06-04T10:49:18.527Z,110
2016-06-04T10:50:18.373Z,115
2016-06-04T10:51:18.376Z,115
2016-06-04T10:52:18.536Z,110
2016-06-04T10:53:18.553Z,110
2016-06-04T10:54:18.572Z,110
2016-06-04T10:55:18.418Z,110
2016-06-04T10:56:18.421Z,110
2016-06-04T10:57:19.955Z,85
2016-06-04T10:58:20.223Z,85
2016-06-04T10:59:18.586Z,90
2016-06-04T11:00:18.588Z,100
2016-06-04T11:01:18.607Z,105
2016-06-04T11:02:18.469Z,90
2016-06-04T11:03:18.675Z,110
2016-06-04T11:04:18.786Z,85
2016-06-04T11:05:18.633Z,105
2016-06-04T11:06:18.651Z,100
2016-06-04T11:07:18.654Z,100
2016-06-04T11:08:18.719Z,85
2016-06-04T11:09:18.659Z,110
2016-06-04T11:10:18.693Z,105
2016-06-04T11:11:18.679Z,105
2016-06-04T11:12:18.699Z,85
2016-06-04T11:13:19.185Z,100
2016-06-04T11:14:18.829Z,100
2016-06-04T11:15:18.707Z,105
2016-06-04T11:16:18.726Z,105
2016-06-04T11:17:18.728Z,105
2016-06-04T11:18:18.731Z,105
2016-06-04T11:19:18.734Z,105
2016-06-04T11:20:18.783Z,105
2016-06-04T11:21:18.614Z,85
2016-06-04T11:22:18.756Z,85
2016-06-04T11:23:18.775Z,115
2016-06-04T11:24:18.778Z,110
2016-06-04T11:25:18.797Z,80
2016-06-04T11:26:18.799Z,105
2016-06-04T11:27:18.848Z,105
2016-06-04T11:28:19.445Z,105
2016-06-04T11:29:18.839Z,85
2016-06-04T11:30:18.825Z,90
2016-06-04T11:31:19.016Z,115
2016-06-04T11:32:18.846Z,90
2016-06-04T11:33:18.849Z,90
2016-06-04T11:34:18.852Z,110
2016-06-04T11:35:18.870Z,110
2016-06-04T11:36:18.716Z,110
2016-06-04T11:37:18.890Z,85
2016-06-04T11:38:18.878Z,90
2016-06-04T11:39:18.896Z,105
2016-06-04T11:40:18.915Z,115
2016-06-04T11:41:18.948Z,110
2016-06-04T11:42:18.951Z,110
2016-06-04T11:43:18.953Z,100
2016-06-04T11:44:18.941Z,90
2016-06-04T11:45:18.943Z,90
2016-06-04T11:46:18.961Z,110
2016-06-04T11:47:18.949Z,110
2016-06-04T11:48:18.952Z,95
2016-06-04T11:49:18.970Z,105
2016-06-04T11:50:19.020Z,105
2016-06-04T11:51:18.835Z,100
2016-06-04T11:52:18.994Z,105
2016-06-04T11:53:18.997Z,100
2016-06-04T11:54:19.015Z,95
2016-06-04T11:55:19.033Z,90
2016-06-04T11:56:19.582Z,90
2016-06-04T11:57:19.383Z,90
2016-06-04T11:58:19.041Z,90
2016-06-04T11:59:19.059Z,85
2016-06-04T12:00:19.062Z,85
2016-06-04T12:01:19.080Z,95
2016-06-04T12:02:19.067Z,95
2016-06-04T12:03:18.913Z,95
2016-06-04T12:04:19.089Z,100
2016-06-04T12:05:18.935Z,100
2016-06-04T12:06:19.110Z,100
2016-06-04T12:07:19.112Z,95
2016-06-04T12:08:18.991Z,100
2016-06-04T12:09:19.133Z,100
2016-06-04T12:10:19.121Z,105
2016-06-04T12:11:19.466Z,105
2016-06-04T12:12:19.938Z,105
2016-06-04T12:13:19.160Z,105
2016-06-04T12:14:19.162Z,105
2016-06-04T12:15:19.212Z,100
2016-06-04T12:16:19.168Z,100
2016-06-04T12:17:19.186Z,90
2016-06-04T12:18:19.189Z,100
2016-06-04T12:19:19.207Z,100
2016-06-04T12:20:19.226Z,100
2016-06-04T12:21:19.212Z,100
2016-06-04T12:22:19.231Z,95
2016-06-04T12:23:19.248Z,95
2016-06-04T12:24:19.251Z,95
2016-06-04T12:25:19.254Z,95
2016-06-04T12:26:19.256Z,90
2016-06-04T12:27:19.260Z,90
2016-06-04T12:28:19.591Z,85
2016-06-04T12:29:19.281Z,85
2016-06-04T12:30:19.283Z,85
2016-06-04T12:31:19.286Z,80
2016-06-04T12:32:19.289Z,80
2016-06-04T12:33:19.150Z,70
2016-06-04T12:34:19.310Z,80
2016-06-04T12:35:19.313Z,80
2016-06-04T12:36:19.175Z,80
2016-06-04T12:37:19.349Z,80
2016-06-04T12:38:19.336Z,80
2016-06-04T12:39:19.355Z,85
2016-06-04T12:40:19.216Z,85
2016-06-04T12:41:19.376Z,85
2016-06-04T12:42:19.754Z,90
2016-06-04T12:43:19.396Z,90
2016-06-04T12:44:19.399Z,85
2016-06-04T12:45:19.401Z,85
2016-06-04T12:46:19.405Z,85
2016-06-04T12:47:19.423Z,85
2016-06-04T12:48:19.426Z,85
2016-06-04T12:49:19.443Z,85
2016-06-04T12:50:19.431Z,80
2016-06-04T12:51:19.449Z,80
2016-06-04T12:52:19.451Z,75
2016-06-04T12:53:19.454Z,90
2016-06-04T12:54:19.473Z,80
2016-06-04T12:55:19.460Z,85
2016-06-04T12:56:20.072Z,75
2016-06-04T12:57:19.731Z,80
2016-06-04T12:58:19.500Z,80
2016-06-04T12:59:19.502Z,80
2016-06-04T13:00:19.520Z,80
2016-06-04T13:01:19.523Z,80
2016-06-04T13:02:21.292Z,80
2016-06-04T13:03:19.544Z,80
2016-06-04T13:04:19.547Z,75
2016-06-04T13:05:19.597Z,70
2016-06-04T13:06:19.552Z,75
2016-06-04T13:07:20.930Z,80
2016-06-04T13:08:19.416Z,75
2016-06-04T13:09:19.576Z,75
2016-06-04T13:10:19.641Z,75
2016-06-04T13:11:19.597Z,65
2016-06-04T13:12:21.100Z,70
2016-06-04T13:13:20.430Z,65
2016-06-04T13:14:20.370Z,60
2016-06-04T13:15:19.624Z,60
2016-06-04T13:16:19.626Z,60
2016-06-04T13:17:21.379Z,60
2016-06-04T13:18:19.647Z,65
2016-06-04T13:19:19.681Z,60
2016-06-04T13:20:19.651Z,60
2016-06-04T13:21:19.671Z,55
2016-06-04T13:22:21.204Z,55
2016-06-04T13:23:19.676Z,50
2016-06-04T13:24:19.694Z,50
2016-06-04T13:25:19.698Z,50
2016-06-04T13:26:20.731Z,50
2016-06-04T13:27:22.703Z,50
2016-06-04T13:28:19.705Z,50
2016-06-04T13:29:19.723Z,45
2016-06-04T13:30:19.726Z,45
2016-06-04T13:31:19.745Z,45
2016-06-04T13:32:19.325Z,45
2016-06-04T13:33:19.750Z,45
2016-06-04T13:34:19.753Z,45
2016-06-04T13:35:19.755Z,50
2016-06-04T13:36:19.774Z,50
2016-06-04T13:37:22.417Z,50
2016-06-04T13:38:19.795Z,45
2016-06-04T13:39:19.813Z,45
2016-06-04T13:40:19.799Z,45
2016-06-04T13:41:19.819Z,40
2016-06-04T13:42:21.243Z,40
2016-06-04T13:43:19.871Z,40
2016-06-04T13:44:19.999Z,40
2016-06-04T13:45:19.844Z,40
2016-06-04T13:46:19.863Z,40
2016-06-04T13:47:23.100Z,40
2016-06-04T13:48:19.852Z,45
2016-06-04T13:49:19.730Z,45
2016-06-04T13:50:19.874Z,45
2016-06-04T13:51:19.876Z,50
2016-06-04T13:52:23.098Z,50
2016-06-04T13:53:19.898Z,55
2016-06-04T13:54:19.759Z,55
2016-06-04T13:55:19.918Z,55
2016-06-04T13:56:19.921Z,50
2016-06-04T13:57:21.393Z,55
2016-06-04T13:58:20.083Z,55
2016-06-04T13:59:20.211Z,50
2016-06-04T14:00:19.947Z,50
2016-06-04T14:01:19.966Z,50
2016-06-04T14:02:21.484Z,50
2016-06-04T14:03:19.972Z,50
2016-06-04T14:04:19.989Z,50
2016-06-04T14:05:20.039Z,50
2016-06-04T14:06:19.995Z,50
2016-06-04T14:07:21.420Z,50
2016-06-04T14:08:20.063Z,50
2016-06-04T14:09:20.019Z,50
2016-06-04T14:10:20.036Z,50
2016-06-04T14:11:19.868Z,50